createdAt,value
2022-11-05T00:08:16.244Z,98.15
2022-11-05T00:18:38.037Z,98.29
2022-11-05T00:28:59.445Z,98.40
2022-11-05T00:39:20.860Z,98.71
2022-11-05T00:49:42.302Z,99.28
2022-11-05T01:00:04.176Z,98.58
2022-11-05T01:10:26.470Z,98.66
2022-11-05T01:20:48.360Z,99.36
2022-11-05T01:31:09.790Z,99.14
2022-11-05T01:41:31.237Z,99.60
2022-11-05T01:51:53.114Z,98.60
2022-11-05T02:02:14.773Z,99.19
2022-11-05T02:12:39.639Z,98.66
2022-11-05T02:23:01.000Z,99.10
2022-11-05T02:33:28.351Z,99.47
2022-11-05T02:44:32.288Z,100.00
2022-11-05T02:55:05.394Z,100.00
2022-11-05T03:05:38.874Z,99.87
2022-11-05T03:16:07.287Z,100.00
2022-11-05T03:26:35.752Z,100.00
2022-11-05T03:36:58.300Z,99.87
2022-11-05T03:47:29.934Z,99.89
2022-11-05T03:57:55.058Z,99.99
2022-11-05T04:08:35.227Z,100.00
2022-11-05T04:18:56.643Z,100.00
2022-11-05T04:29:36.690Z,100.00
2022-11-05T04:39:58.106Z,100.00
2022-11-05T04:50:19.923Z,100.00
2022-11-05T05:00:41.367Z,100.00
2022-11-05T05:11:05.483Z,100.00
2022-11-05T05:21:39.164Z,99.82
2022-11-05T05:32:00.659Z,100.00
2022-11-05T05:42:22.984Z,100.00
2022-11-05T05:52:44.392Z,100.00
2022-11-05T06:03:06.528Z,100.00
2022-11-05T06:13:28.061Z,100.00
2022-11-05T06:23:49.834Z,100.00
2022-11-05T06:34:11.323Z,100.00
2022-11-05T06:44:32.720Z,100.00
2022-11-05T06:54:54.175Z,100.00
2022-11-05T07:05:16.620Z,100.00
2022-11-05T07:15:38.216Z,100.00
2022-11-05T07:25:59.651Z,100.00
2022-11-05T07:36:21.087Z,100.00
2022-11-05T07:46:42.506Z,100.00
2022-11-05T07:57:03.952Z,100.00
2022-11-05T08:07:25.376Z,99.71
2022-11-05T08:17:46.917Z,99.33
2022-11-05T08:28:11.536Z,100.00
2022-11-05T08:38:33.024Z,99.71
2022-11-05T08:48:54.425Z,99.07
2022-11-05T08:59:15.848Z,97.75
2022-11-05T09:09:37.283Z,97.06
2022-11-05T09:19:58.712Z,96.66
2022-11-05T09:30:20.148Z,95.68
2022-11-05T09:41:12.217Z,95.21
2022-11-05T09:51:36.040Z,94.36
2022-11-05T10:02:11.393Z,95.17
2022-11-05T10:12:48.043Z,92.65
2022-11-05T10:23:13.676Z,91.86
2022-11-05T10:33:39.552Z,90.80
2022-11-05T10:44:06.461Z,90.56
2022-11-05T10:54:33.492Z,90.71
2022-11-05T11:04:58.287Z,89.70
2022-11-05T11:15:20.775Z,88.47
2022-11-05T11:26:07.100Z,88.39
2022-11-05T11:36:35.965Z,87.69
2022-11-05T11:47:01.964Z,87.90
2022-11-05T11:57:28.515Z,87.86
2022-11-05T12:07:55.848Z,87.03
2022-11-05T12:18:35.909Z,86.23
2022-11-05T12:39:51.494Z,85.76
2022-11-05T12:50:37.643Z,85.11
2022-11-05T13:01:04.948Z,85.87
2022-11-05T13:11:33.274Z,86.29
2022-11-05T13:22:01.288Z,85.82
2022-11-05T13:32:41.267Z,85.75
2022-11-05T13:43:21.258Z,85.49
2022-11-05T13:54:09.739Z,84.85
2022-11-05T14:04:33.078Z,85.82
2022-11-05T14:15:02.324Z,85.35
2022-11-05T14:25:25.187Z,85.58
2022-11-05T14:35:46.666Z,85.56
2022-11-05T14:46:08.320Z,86.68
2022-11-05T14:56:54.972Z,86.21
2022-11-05T15:07:35.375Z,85.92
2022-11-05T15:18:04.298Z,86.76
2022-11-05T15:28:50.711Z,86.36
2022-11-05T15:39:30.216Z,85.87
2022-11-05T15:50:01.228Z,86.64
2022-11-05T16:00:28.784Z,86.36
2022-11-05T16:11:00.816Z,86.82
2022-11-05T16:21:25.213Z,87.19
2022-11-05T16:31:52.508Z,86.87
2022-11-05T16:42:23.210Z,86.93
2022-11-05T16:52:46.187Z,87.22
2022-11-05T17:03:07.610Z,87.23
2022-11-05T17:13:29.076Z,87.23
2022-11-05T17:23:50.494Z,86.70
2022-11-05T17:34:12.057Z,87.21
2022-11-05T17:44:33.474Z,87.43
2022-11-05T17:54:54.930Z,87.11
2022-11-05T18:05:21.636Z,86.82
2022-11-05T18:15:43.604Z,86.86
2022-11-05T18:26:13.099Z,86.36
2022-11-05T18:36:34.567Z,87.36
2022-11-05T18:46:58.619Z,86.86
2022-11-05T18:57:20.393Z,87.01
2022-11-05T19:07:41.845Z,86.36
2022-11-05T19:18:03.424Z,86.15
2022-11-05T19:28:25.285Z,86.05
2022-11-05T19:38:54.337Z,86.09
2022-11-05T19:49:15.861Z,86.17
2022-11-05T19:59:37.329Z,85.93
2022-11-05T20:09:58.770Z,86.15
2022-11-05T20:20:20.730Z,86.33
2022-11-05T20:30:42.070Z,85.07
2022-11-05T20:41:12.721Z,86.55
2022-11-05T20:51:34.250Z,86.88
2022-11-05T21:01:55.850Z,86.43
2022-11-05T21:12:18.470Z,86.27
2022-11-05T21:22:43.000Z,86.83
2022-11-05T21:33:05.387Z,86.45
2022-11-05T21:43:26.866Z,87.30
2022-11-05T21:54:06.828Z,87.34
2022-11-05T22:04:34.598Z,87.80
2022-11-05T22:14:56.099Z,88.52
2022-11-05T22:25:17.876Z,88.87
2022-11-05T22:35:39.855Z,88.27
2022-11-05T22:46:05.084Z,88.47
2022-11-05T22:56:29.284Z,88.63
2022-11-05T23:07:09.447Z,89.17
2022-11-05T23:17:49.566Z,89.07
2022-11-05T23:28:12.313Z,89.24
2022-11-05T23:38:33.988Z,89.44
2022-11-05T23:48:55.399Z,90.62
2022-11-05T23:59:16.819Z,91.93
